Time;durP1;ratioP1;P1;durP2;ratioP2;P2;SDS_P1;SDS_P2;PMS_P1;PMS_P2;Temp;Humidity;BMP_temperature;BMP_pressure;BME280_temperature;BME280_humidity;BME280_pressure;Samples;Min_cycle;Max_cycle;Signal;HPM_P1;HPM_P2
2021/09/17 00:01:41;;;;;;;32.22;20.35;;;;;;;18.25;58.87;101694.94;4967311;28;124652;-65
2021/09/17 00:04:08;;;;;;;31.67;19.60;;;;;;;18.27;58.95;101693.03;4959919;28;114415;-65
2021/09/17 00:06:35;;;;;;;30.83;19.90;;;;;;;18.28;58.87;101694.75;4969706;28;114287;-65
2021/09/17 00:09:03;;;;;;;34.03;20.23;;;;;;;18.28;59.07;101695.63;4968596;28;122815;-65
2021/09/17 00:11:30;;;;;;;29.92;20.27;;;;;;;18.30;58.87;101692.84;4966312;28;124274;-65
2021/09/17 00:13:57;;;;;;;31.25;19.73;;;;;;;18.31;59.31;101694.56;4967423;28;115576;-65
2021/09/17 00:16:24;;;;;;;33.05;20.58;;;;;;;18.32;59.20;101690.06;4972831;28;112951;-65
2021/09/17 00:18:51;;;;;;;30.75;20.25;;;;;;;18.32;59.16;101690.91;4967712;28;123994;-65
2021/09/17 00:21:18;;;;;;;36.85;20.52;;;;;;;18.34;59.16;101691.69;4972107;28;123913;-65
2021/09/17 00:23:45;;;;;;;30.63;20.08;;;;;;;18.34;59.35;101689.00;4968774;28;114213;-65
2021/09/17 00:26:13;;;;;;;30.15;20.17;;;;;;;18.35;58.98;101685.38;4974127;28;114786;-65
2021/09/17 00:28:40;;;;;;;31.35;20.33;;;;;;;18.37;59.28;101683.44;4972488;28;123256;-64
2021/09/17 00:31:07;;;;;;;32.58;19.77;;;;;;;18.37;59.29;101678.09;4969523;28;123897;-64
2021/09/17 00:33:34;;;;;;;32.20;20.33;;;;;;;18.38;59.48;101674.41;4964945;28;115175;-65
2021/09/17 00:36:02;;;;;;;32.08;20.33;;;;;;;18.39;59.21;101678.84;4968055;28;114348;-64
2021/09/17 00:38:29;;;;;;;32.33;20.67;;;;;;;18.40;59.13;101672.53;4972253;28;123368;-64
2021/09/17 00:40:56;;;;;;;32.42;20.67;;;;;;;18.42;59.12;101675.97;4968641;28;124852;-64
2021/09/17 00:43:23;;;;;;;31.25;19.58;;;;;;;18.43;59.16;101666.94;4971716;28;114598;-64
2021/09/17 00:45:51;;;;;;;28.33;19.20;;;;;;;18.43;59.28;101669.63;4969224;28;114052;-64
2021/09/17 00:48:18;;;;;;;33.67;20.98;;;;;;;18.44;59.10;101663.31;4966492;28;124393;-64
2021/09/17 00:50:45;;;;;;;32.22;20.50;;;;;;;18.45;59.14;101659.66;4968800;28;124049;-64
2021/09/17 00:53:12;;;;;;;31.17;20.25;;;;;;;18.45;59.26;101658.81;4973786;28;113489;-65
2021/09/17 00:55:40;;;;;;;31.25;20.42;;;;;;;18.45;59.19;101659.66;4969849;28;114228;-65
2021/09/17 00:58:07;;;;;;;34.42;20.90;;;;;;;18.45;59.40;101665.03;4972172;28;124105;-65
2021/09/17 01:00:34;;;;;;;33.55;20.75;;;;;;;18.45;59.32;101670.38;4972530;28;124287;-64
2021/09/17 01:03:01;;;;;;;33.55;19.95;;;;;;;18.44;59.29;101663.31;4968921;28;114131;-64
2021/09/17 01:05:29;;;;;;;32.83;20.52;;;;;;;18.45;59.26;101659.66;4969591;28;113971;-64
2021/09/17 01:07:56;;;;;;;34.47;21.10;;;;;;;18.45;59.35;101664.16;4965914;28;124102;-64
2021/09/17 01:10:23;;;;;;;34.95;21.95;;;;;;;18.45;59.51;101665.03;4970241;28;124089;-65
2021/09/17 01:12:51;;;;;;;33.90;21.38;;;;;;;18.44;59.63;101660.63;4970266;28;114315;-65
2021/09/17 01:15:18;;;;;;;35.53;21.58;;;;;;;18.44;59.59;101663.31;4973711;28;114016;-65
2021/09/17 01:17:45;;;;;;;34.78;21.83;;;;;;;18.44;59.52;101657.06;4964908;28;124615;-64
2021/09/17 01:20:15;;;;;;;36.45;22.50;;;;;;;18.44;59.76;101663.31;4967835;28;124182;-65
2021/09/17 01:22:43;;;;;;;37.20;22.85;;;;;;;18.45;59.73;101659.66;4966297;28;115190;-65
2021/09/17 01:25:16;;;;;;;37.58;22.15;;;;;;;18.45;59.87;101659.66;4970008;28;114927;-64
2021/09/17 01:27:45;;;;;;;38.38;22.10;;;;;;;18.46;59.80;101661.38;4972633;28;123056;-64
2021/09/17 01:30:14;;;;;;;37.22;22.33;;;;;;;18.47;59.79;101657.72;4964392;28;124275;-64
2021/09/17 01:32:42;;;;;;;36.90;22.08;;;;;;;18.48;59.86;101659.47;4968095;28;114656;-64
2021/09/17 01:35:14;;;;;;;38.45;22.23;;;;;;;18.48;60.00;101654.09;4968635;28;113063;-64
2021/09/17 01:37:43;;;;;;;34.78;21.90;;;;;;;18.48;59.93;101648.75;4969197;28;123934;-65
2021/09/17 01:40:11;;;;;;;37.42;22.15;;;;;;;18.49;60.04;101650.44;4963013;28;124650;-64
2021/09/17 01:42:39;;;;;;;36.63;22.40;;;;;;;18.50;59.99;101645.97;4966237;28;114590;-65
2021/09/17 01:45:07;;;;;;;37.53;22.52;;;;;;;18.51;59.83;101641.44;4968045;28;114103;-65
2021/09/17 01:47:35;;;;;;;37.40;21.80;;;;;;;18.51;59.89;101642.28;4965379;28;123835;-65
2021/09/17 01:50:02;;;;;;;37.92;22.45;;;;;;;18.51;59.99;101636.09;4968694;28;124228;-67
2021/09/17 01:52:30;;;;;;;36.10;22.00;;;;;;;18.52;60.01;101643.19;4972089;28;114279;-65
2021/09/17 01:54:57;;;;;;;37.72;21.33;;;;;;;18.49;59.92;101634.34;4964440;28;114397;-65
2021/09/17 01:57:25;;;;;;;37.47;21.73;;;;;;;18.51;59.97;101636.09;4973955;28;124094;-65
2021/09/17 01:59:52;;;;;;;35.50;21.55;;;;;;;18.49;59.99;101633.50;4967233;28;123680;-65
2021/09/17 02:02:19;;;;;;;36.83;21.65;;;;;;;18.49;59.99;101633.50;4964402;28;114239;-65
2021/09/17 02:04:46;;;;;;;35.67;22.10;;;;;;;18.49;60.00;101628.97;4972278;28;114140;-65
2021/09/17 02:07:13;;;;;;;37.95;22.30;;;;;;;18.49;59.98;101631.66;4970453;28;124403;-65
2021/09/17 02:09:41;;;;;;;39.42;22.45;;;;;;;18.49;60.12;101634.34;4967891;28;122678;-65
2021/09/17 02:12:08;;;;;;;36.78;22.70;;;;;;;18.49;60.20;101626.28;4966399;28;115948;-65
2021/09/17 02:14:38;;;;;;;41.35;22.50;;;;;;;18.51;60.07;101633.41;4968392;28;115059;-65
2021/09/17 02:17:06;;;;;;;35.75;21.98;;;;;;;18.52;59.94;101627.09;4970917;28;123588;-65
2021/09/17 02:19:33;;;;;;;37.63;21.80;;;;;;;18.53;60.23;101623.41;4968063;28;123893;-65
2021/09/17 02:22:01;;;;;;;36.38;21.95;;;;;;;18.55;60.12;101632.22;4970420;28;114025;-65
2021/09/17 02:24:28;;;;;;;35.88;21.95;;;;;;;18.57;60.19;101630.31;4967000;28;114599;-65
2021/09/17 02:26:55;;;;;;;36.88;21.23;;;;;;;18.57;60.14;101622.25;4972745;28;124262;-64
2021/09/17 02:29:22;;;;;;;35.42;22.35;;;;;;;18.59;60.07;101628.38;4967553;28;123882;-65
2021/09/17 02:31:49;;;;;;;36.70;22.35;;;;;;;18.60;59.97;101625.59;4971542;28;113259;-65
2021/09/17 02:34:18;;;;;;;38.67;21.27;;;;;;;18.60;60.06;101624.75;4968186;28;96990;-65
2021/09/17 02:36:45;;;;;;;36.65;21.70;;;;;;;18.61;60.17;101615.72;4966020;28;124745;-65
2021/09/17 02:39:14;;;;;;;38.53;21.85;;;;;;;18.63;59.94;101624.56;4968846;28;124198;-65
2021/09/17 02:41:42;;;;;;;37.42;21.67;;;;;;;18.64;60.05;101620.88;4968437;28;115002;-65
2021/09/17 02:44:10;;;;;;;36.72;22.08;;;;;;;18.66;60.02;101618.97;4972169;28;114158;-65
2021/09/17 02:46:38;;;;;;;36.17;21.55;;;;;;;18.67;60.33;101612.66;4969790;28;124361;-64
2021/09/17 02:49:05;;;;;;;39.13;22.23;;;;;;;18.69;60.10;101618.75;4969393;28;124494;-65
2021/09/17 02:51:33;;;;;;;34.65;21.38;;;;;;;18.70;60.13;101615.09;4971379;28;113308;-65
2021/09/17 02:54:00;;;;;;;33.08;21.05;;;;;;;18.71;60.23;101606.09;4970879;28;113900;-65
2021/09/17 02:56:27;;;;;;;33.08;20.13;;;;;;;18.73;60.06;101614.91;4972144;28;123954;-65
2021/09/17 02:58:56;;;;;;;34.55;21.42;;;;;;;18.74;60.00;101605.91;4971031;28;124582;-65
2021/09/17 03:01:23;;;;;;;35.22;20.40;;;;;;;18.76;60.28;101603.97;4969025;28;115276;-65
2021/09/17 03:03:50;;;;;;;35.25;20.05;;;;;;;18.76;60.02;101595.94;4985227;28;113730;-65
2021/09/17 03:06:18;;;;;;;34.25;20.30;;;;;;;18.78;59.96;101602.06;4969046;28;123899;-65
2021/09/17 03:08:45;;;;;;;34.35;20.85;;;;;;;18.79;60.10;101602.91;4969768;28;123909;-65
2021/09/17 03:11:12;;;;;;;35.40;20.45;;;;;;;18.80;60.13;101599.28;4969403;28;113126;-65
2021/09/17 03:13:39;;;;;;;36.95;21.20;;;;;;;18.81;60.10;101599.16;4971845;28;114500;-65
2021/09/17 03:16:07;;;;;;;33.83;20.08;;;;;;;18.82;59.91;101597.38;4966251;28;124938;-65
2021/09/17 03:18:34;;;;;;;34.15;20.13;;;;;;;18.82;60.06;101598.22;4966928;28;124001;-65
2021/09/17 03:21:02;;;;;;;33.63;20.58;;;;;;;18.82;59.88;101592.84;4970676;28;114519;-65
2021/09/17 03:23:29;;;;;;;35.78;20.58;;;;;;;18.79;60.02;101593.00;4970978;28;112756;-65
2021/09/17 03:25:56;;;;;;;34.10;20.95;;;;;;;18.77;60.21;101588.72;4966370;28;124058;-65
2021/09/17 03:28:23;;;;;;;32.08;20.15;;;;;;;18.76;59.99;101587.88;4965827;28;124019;-65
2021/09/17 03:30:51;;;;;;;33.30;20.65;;;;;;;18.76;60.22;101587.88;4964260;28;113384;-65
2021/09/17 03:33:18;;;;;;;35.80;21.38;;;;;;;18.77;60.28;101584.22;4968718;28;114439;-65
2021/09/17 03:35:45;;;;;;;33.00;21.48;;;;;;;18.78;60.04;101591.31;4970266;28;124760;-65
2021/09/17 03:38:12;;;;;;;32.67;19.98;;;;;;;18.78;60.18;101585.06;4967563;28;124479;-65
2021/09/17 03:40:40;;;;;;;34.58;21.20;;;;;;;18.79;60.23;101586.78;4969085;28;113250;-65
2021/09/17 03:43:07;;;;;;;34.33;20.52;;;;;;;18.79;60.22;101587.66;4968063;28;114057;-65
2021/09/17 03:45:36;;;;;;;33.45;20.48;;;;;;;18.78;60.30;101585.94;4971280;28;124593;-65
2021/09/17 03:48:09;;;;;;;36.08;20.73;;;;;;;18.78;60.45;101575.22;4966625;28;124258;-65
2021/09/17 03:50:37;;;;;;;31.60;19.33;;;;;;;18.79;60.24;101582.28;4969423;28;115656;-65
2021/09/17 03:53:04;;;;;;;34.15;20.13;;;;;;;18.79;60.47;101571.53;4968287;28;115185;-64
2021/09/17 03:55:32;;;;;;;31.63;19.98;;;;;;;18.80;60.36;101570.63;4968497;28;124105;-65
2021/09/17 03:58:00;;;;;;;32.92;19.85;;;;;;;18.82;60.26;101571.38;4966213;28;123939;-64
2021/09/17 04:00:27;;;;;;;30.08;19.05;;;;;;;18.82;60.24;101563.31;4967584;28;114248;-65
2021/09/17 04:02:55;;;;;;;33.75;19.17;;;;;;;18.82;60.15;101570.53;4984018;28;112877;-64
2021/09/17 04:05:22;;;;;;;36.00;20.05;;;;;;;18.79;60.29;101566.19;4969762;28;124764;-64
2021/09/17 04:07:49;;;;;;;33.60;19.23;;;;;;;18.79;60.23;101566.19;4970878;28;123910;-64
2021/09/17 04:10:18;;;;;;;32.05;19.88;;;;;;;18.79;60.25;101571.53;4968502;28;114145;-64
2021/09/17 04:12:45;;;;;;;32.83;19.70;;;;;;;18.78;60.29;101569.84;4968214;28;114382;-64
2021/09/17 04:15:13;;;;;;;33.83;19.75;;;;;;;18.78;60.39;101559.09;4969075;28;123831;-64
2021/09/17 04:17:41;;;;;;;28.25;18.48;;;;;;;18.79;60.22;101566.19;4968932;28;123702;-65
2021/09/17 04:20:09;;;;;;;32.35;19.10;;;;;;;18.79;60.32;101566.19;4968355;28;114561;-64
2021/09/17 04:22:36;;;;;;;33.78;18.60;;;;;;;18.80;60.36;101567.94;4971252;28;113923;-64
2021/09/17 04:25:09;;;;;;;33.33;20.50;;;;;;;18.80;60.30;101562.56;4968919;28;124546;-64
2021/09/17 04:27:37;;;;;;;32.42;19.17;;;;;;;18.80;60.24;101554.53;4967054;28;123897;-64
2021/09/17 04:30:06;;;;;;;33.22;19.70;;;;;;;18.81;60.36;101561.59;4968674;28;114129;-64
2021/09/17 04:32:33;;;;;;;29.80;19.35;;;;;;;18.81;60.38;101561.59;4970632;28;114114;-64
2021/09/17 04:35:03;;;;;;;34.88;20.58;;;;;;;18.82;60.26;101557.97;4951998;28;123161;-64
2021/09/17 04:37:30;;;;;;;31.92;19.95;;;;;;;18.82;60.24;101560.66;4983105;22;124243;-69
2021/09/17 04:39:57;;;;;;;32.38;19.77;;;;;;;18.82;60.22;101555.28;4968247;28;114043;-69
2021/09/17 04:42:24;;;;;;;32.53;19.73;;;;;;;18.81;60.18;101556.22;4966995;28;115669;-69
2021/09/17 04:44:51;;;;;;;32.55;19.58;;;;;;;18.81;60.37;101556.22;4966780;28;125006;-69
2021/09/17 04:47:18;;;;;;;32.50;19.40;;;;;;;18.82;60.24;101549.91;4966514;28;124705;-69
2021/09/17 04:49:45;;;;;;;31.13;19.17;;;;;;;18.81;60.43;101547.31;4969592;28;114056;-69
2021/09/17 04:52:12;;;;;;;31.80;19.85;;;;;;;18.80;60.25;101551.84;4963234;28;113761;-69
2021/09/17 04:54:40;;;;;;;30.13;18.52;;;;;;;18.80;60.24;101557.22;4961939;28;124105;-69
2021/09/17 04:57:07;;;;;;;31.23;18.95;;;;;;;18.80;60.35;101553.63;4948345;28;122772;-69
2021/09/17 04:59:34;;;;;;;29.35;18.77;;;;;;;18.79;60.36;101554.59;4964442;28;114903;-69
2021/09/17 05:02:01;;;;;;;31.90;19.27;;;;;;;18.79;60.43;101555.44;4969122;28;113851;-69
2021/09/17 05:04:31;;;;;;;30.33;18.38;;;;;;;18.78;60.29;101559.09;4968754;28;124465;-68
2021/09/17 05:06:58;;;;;;;29.20;18.83;;;;;;;18.77;60.50;101557.38;4972422;28;124237;-69
2021/09/17 05:09:26;;;;;;;31.10;18.27;;;;;;;18.77;60.42;101557.38;4965934;28;114218;-71
2021/09/17 05:11:53;;;;;;;30.02;17.85;;;;;;;18.76;60.29;101555.66;4965895;28;113920;-71
2021/09/17 05:14:20;;;;;;;30.83;18.23;;;;;;;18.76;60.39;101561.03;4971975;28;123994;-69
2021/09/17 05:16:48;;;;;;;30.77;18.60;;;;;;;18.77;60.31;101556.53;4970900;28;123565;-69
2021/09/17 05:19:18;;;;;;;31.13;18.25;;;;;;;18.76;60.27;101558.34;4965917;28;114701;-68
2021/09/17 05:21:45;;;;;;;28.45;17.40;;;;;;;18.77;60.37;101552.00;4968731;28;113948;-69
2021/09/17 05:24:12;;;;;;;28.75;17.55;;;;;;;18.76;60.34;101555.66;4971092;28;123205;-69
2021/09/17 05:26:39;;;;;;;29.58;18.08;;;;;;;18.77;60.32;101556.53;4955732;28;123797;-69
2021/09/17 05:29:06;;;;;;;27.83;17.75;;;;;;;18.75;60.34;101564.66;4966357;28;115972;-69
2021/09/17 05:31:33;;;;;;;28.67;18.27;;;;;;;18.74;60.12;101560.28;4963838;28;115466;-69
2021/09/17 05:34:00;;;;;;;29.40;17.42;;;;;;;18.73;60.34;101550.50;4967320;28;123856;-69
2021/09/17 05:36:27;;;;;;;27.98;17.17;;;;;;;18.73;60.38;101553.19;4968175;28;123723;-69
2021/09/17 05:38:55;;;;;;;29.60;17.63;;;;;;;18.71;60.53;101552.44;4971642;28;114563;-69
2021/09/17 05:41:22;;;;;;;29.65;17.27;;;;;;;18.70;60.25;101556.06;4970443;28;112962;-69
2021/09/17 05:43:50;;;;;;;25.73;16.60;;;;;;;18.70;60.18;101544.47;4968852;28;124425;-69
2021/09/17 05:46:18;;;;;;;26.40;16.98;;;;;;;18.69;60.32;101549.00;4970864;28;124586;-69
2021/09/17 05:48:45;;;;;;;25.48;16.20;;;;;;;18.69;60.27;101543.63;4968778;28;114571;-69
2021/09/17 05:51:12;;;;;;;29.25;17.30;;;;;;;18.68;60.20;101548.16;4969524;28;113864;-69
2021/09/17 05:53:59;;;;;;;26.10;16.67;;;;;;;18.67;60.15;101535.69;4962052;28;124868;-72
2021/09/17 05:56:27;;;;;;;28.20;16.63;;;;;;;18.68;60.18;101541.91;4966577;28;123664;-69
2021/09/17 05:58:54;;;;;;;27.95;16.95;;;;;;;18.69;60.47;101562.41;4968818;28;114086;-69
2021/09/17 06:01:21;;;;;;;30.10;17.65;;;;;;;18.68;60.37;101568.72;4969618;28;113094;-70
2021/09/17 06:03:48;;;;;;;28.63;17.15;;;;;;;18.70;60.51;101582.91;4968407;28;123879;-71
2021/09/17 06:06:18;;;;;;;26.02;16.90;;;;;;;18.70;60.33;101582.91;4968789;28;124308;-73
2021/09/17 06:08:48;;;;;;;25.23;16.23;;;;;;;18.71;60.58;101584.63;4980713;28;114377;-70
2021/09/17 06:11:15;;;;;;;32.15;17.73;;;;;;;18.70;60.56;101577.53;4970276;28;112732;-70
2021/09/17 06:13:42;;;;;;;30.27;17.40;;;;;;;18.70;60.51;101577.53;4966784;28;124088;-72
2021/09/17 06:16:10;;;;;;;28.10;17.13;;;;;;;18.72;60.61;101574.75;4968788;28;124419;-70
2021/09/17 06:18:44;;;;;;;28.05;17.50;;;;;;;18.71;60.60;101579.28;4969278;28;115161;-72
2021/09/17 06:21:20;;;;;;;30.40;17.73;;;;;;;18.74;60.58;101573.72;4975983;28;113657;-73
2021/09/17 06:23:49;;;;;;;29.95;17.40;;;;;;;18.80;60.80;101567.06;4974009;28;125122;-75
2021/09/17 06:26:17;;;;;;;29.73;17.48;;;;;;;18.81;60.67;101558.91;4970935;28;121328;-71
2021/09/17 06:28:44;;;;;;;31.75;18.17;;;;;;;18.83;60.67;101570.41;4965491;28;114395;-72
2021/09/17 06:31:11;;;;;;;31.40;18.33;;;;;;;18.85;60.76;101565.81;4965765;28;114341;-72
2021/09/17 06:33:38;;;;;;;28.83;17.67;;;;;;;18.88;60.69;101569.25;4969335;28;124094;-72
2021/09/17 06:36:05;;;;;;;28.95;17.38;;;;;;;18.90;60.79;101567.31;4965795;28;124565;-72
2021/09/17 06:38:32;;;;;;;34.20;18.83;;;;;;;18.93;60.74;101567.09;4971227;28;113949;-72
2021/09/17 06:40:59;;;;;;;28.35;18.05;;;;;;;18.97;60.75;101574.00;4966854;28;114032;-72
2021/09/17 06:43:26;;;;;;;30.45;18.38;;;;;;;18.99;60.52;101564.00;4967983;28;123246;-72
2021/09/17 06:45:53;;;;;;;31.98;18.67;;;;;;;19.00;60.62;101569.25;4968089;28;123608;-73
2021/09/17 06:48:20;;;;;;;30.15;19.10;;;;;;;19.02;60.53;101561.09;4967570;28;114025;-72
2021/09/17 06:50:47;;;;;;;30.30;18.67;;;;;;;19.03;60.77;101562.81;4968894;28;114162;-72
2021/09/17 06:53:15;;;;;;;32.25;19.20;;;;;;;19.05;60.66;101572.47;4966778;28;123112;-72
2021/09/17 06:55:42;;;;;;;33.10;19.98;;;;;;;19.11;60.82;101576.56;4967152;28;123405;-72
2021/09/17 06:58:09;;;;;;;34.45;19.80;;;;;;;19.16;60.77;101578.94;4969674;28;114300;-72
2021/09/17 07:00:38;;;;;;;37.00;19.52;;;;;;;19.20;60.92;101577.75;4959444;28;113981;-72
2021/09/17 07:03:06;;;;;;;35.42;19.25;;;;;;;19.26;60.91;101580.84;4972046;28;124043;-72
2021/09/17 07:05:33;;;;;;;35.40;20.30;;;;;;;19.33;60.70;101575.94;4965354;28;123591;-72
2021/09/17 07:08:07;;;;;;;34.88;19.52;;;;;;;19.40;60.96;101576.34;4966309;28;115728;-73
2021/09/17 07:10:37;;;;;;;31.58;19.35;;;;;;;19.47;60.88;101571.41;4965556;28;115013;-72
2021/09/17 07:13:05;;;;;;;31.85;18.63;;;;;;;19.54;60.69;101570.00;4968629;28;123785;-72
2021/09/17 07:15:32;;;;;;;33.20;19.70;;;;;;;19.58;60.62;101569.66;4970122;28;124068;-72
2021/09/17 07:18:04;;;;;;;33.78;19.85;;;;;;;19.62;60.41;101571.16;4986576;28;113336;-73
2021/09/17 07:20:32;;;;;;;30.42;19.38;;;;;;;19.65;60.40;101570.09;4970840;28;114198;-72
2021/09/17 07:23:00;;;;;;;32.17;20.50;;;;;;;19.67;60.17;101561.94;4965400;28;124045;-72
2021/09/17 07:25:27;;;;;;;34.47;20.38;;;;;;;19.69;60.11;101565.34;4971544;28;124586;-72
2021/09/17 07:27:54;;;;;;;33.85;19.65;;;;;;;19.72;60.29;101559.75;4971183;28;114959;-72
2021/09/17 07:30:22;;;;;;;34.60;20.85;;;;;;;19.76;60.35;101561.25;4969060;28;112885;-72
2021/09/17 07:32:50;;;;;;;31.38;19.98;;;;;;;19.80;60.29;101562.78;4985241;28;123569;-72
2021/09/17 07:35:21;;;;;;;33.05;20.00;;;;;;;19.86;60.41;101556.97;4962712;28;124172;-72
2021/09/17 07:37:48;;;;;;;32.65;20.20;;;;;;;19.95;60.42;101561.66;4965607;28;114094;-72
2021/09/17 07:40:15;;;;;;;30.38;19.08;;;;;;;20.03;60.33;101563.78;4959931;28;114538;-72
2021/09/17 07:42:46;;;;;;;31.38;18.88;;;;;;;20.11;60.28;101561.38;4959557;28;125037;-71
2021/09/17 07:45:14;;;;;;;31.15;18.83;;;;;;;20.19;60.39;101558.13;4983771;28;122968;-72
2021/09/17 07:47:41;;;;;;;28.58;18.30;;;;;;;20.25;59.99;101563.06;4961213;28;113316;-72
2021/09/17 07:50:10;;;;;;;27.85;18.75;;;;;;;20.32;60.06;101553.53;4955453;28;113210;-71
2021/09/17 07:52:37;;;;;;;29.65;18.88;;;;;;;20.36;60.04;101555.03;4965191;28;124700;-72
2021/09/17 07:55:05;;;;;;;29.67;18.27;;;;;;;20.44;59.83;101551.78;4969773;28;124530;-72
2021/09/17 07:57:33;;;;;;;27.50;17.67;;;;;;;20.51;59.66;101558.41;4981526;28;115603;-72
2021/09/17 08:00:00;;;;;;;26.92;17.70;;;;;;;20.57;59.48;101557.09;4960097;28;115077;-72
2021/09/17 08:02:27;;;;;;;29.80;18.75;;;;;;;20.64;59.45;101558.34;4965833;28;124736;-72
2021/09/17 08:04:54;;;;;;;27.38;17.83;;;;;;;20.69;59.45;101556.16;4959591;28;124024;-73
2021/09/17 08:07:21;;;;;;;28.38;17.40;;;;;;;20.77;59.41;101553.75;4968405;28;114345;-73
2021/09/17 08:09:48;;;;;;;27.27;18.10;;;;;;;20.85;59.23;101552.28;4957849;28;114689;-73
2021/09/17 08:12:15;;;;;;;28.00;18.02;;;;;;;20.92;59.02;101556.25;4967628;28;124898;-72
2021/09/17 08:14:42;;;;;;;29.90;18.90;;;;;;;20.98;58.97;101562.03;4960610;28;124796;-73
2021/09/17 08:17:10;;;;;;;27.73;17.65;;;;;;;21.04;58.94;101558.00;4947265;28;114062;-72
2021/09/17 08:19:37;;;;;;;27.38;17.75;;;;;;;21.11;59.11;101559.19;4985695;28;112973;-73
2021/09/17 08:22:04;;;;;;;27.92;19.25;;;;;;;21.18;58.88;101552.34;4969575;28;123575;-73
2021/09/17 08:24:31;;;;;;;28.10;17.88;;;;;;;21.27;58.52;101555.31;4970012;28;123784;-73
2021/09/17 08:27:00;;;;;;;29.08;18.77;;;;;;;21.30;58.32;101555.06;4970457;28;114541;-73
2021/09/17 08:29:28;;;;;;;29.40;18.95;;;;;;;21.32;58.30;101558.50;4969373;28;114152;-73
2021/09/17 08:31:56;;;;;;;30.88;19.45;;;;;;;21.34;58.26;101551.13;4969042;28;124493;-73
2021/09/17 08:34:24;;;;;;;28.15;18.17;;;;;;;21.39;58.17;101548.94;4969532;28;124529;-73
2021/09/17 08:36:52;;;;;;;29.48;18.88;;;;;;;21.42;58.00;101545.13;4970633;28;114469;-73
2021/09/17 08:39:20;;;;;;;31.25;19.83;;;;;;;21.47;58.15;101541.13;4959750;28;114178;-73
2021/09/17 08:41:48;;;;;;;30.35;19.42;;;;;;;21.53;58.04;101540.66;4951854;28;122981;-73
2021/09/17 08:44:16;;;;;;;30.88;19.65;;;;;;;21.60;57.90;101545.53;4973298;28;124156;-73
2021/09/17 08:46:45;;;;;;;30.20;19.05;;;;;;;21.65;57.74;101543.34;4966928;28;114663;-74
2021/09/17 08:49:16;;;;;;;27.15;18.92;;;;;;;21.68;57.79;101543.06;4972115;28;113979;-72
2021/09/17 08:51:44;;;;;;;29.38;19.42;;;;;;;21.74;57.81;101545.28;4971091;28;124686;-73
2021/09/17 08:54:11;;;;;;;31.77;19.23;;;;;;;21.80;57.81;101547.47;4973548;28;124699;-73
2021/09/17 08:56:38;;;;;;;31.05;20.13;;;;;;;21.87;57.65;101547.81;4973314;28;114155;-73
2021/09/17 08:59:05;;;;;;;31.58;20.25;;;;;;;21.92;57.70;101546.47;4973108;28;113954;-73
2021/09/17 09:01:36;;;;;;;35.58;20.92;;;;;;;22.00;57.78;101543.16;4973159;28;124945;-73
2021/09/17 09:04:09;;;;;;;32.42;20.67;;;;;;;22.07;57.46;101548.91;4971489;28;124549;-73
2021/09/17 09:06:42;;;;;;;31.02;19.98;;;;;;;22.10;57.36;101543.25;4966584;28;113115;-72
2021/09/17 09:09:18;;;;;;;31.70;20.15;;;;;;;22.15;57.33;101543.72;4972773;28;115293;-73
2021/09/17 09:11:49;;;;;;;31.65;20.30;;;;;;;22.19;56.76;101553.28;4971600;28;123839;-73
2021/09/17 09:14:18;;;;;;;30.83;20.33;;;;;;;22.19;56.96;101547.91;4959400;28;124149;-74
2021/09/17 09:16:51;;;;;;;32.90;20.65;;;;;;;22.20;56.87;101556.84;4988036;28;113187;-73
2021/09/17 09:19:35;;;;;;;33.45;20.98;;;;;;;22.24;57.03;101553.75;4965340;28;114050;-73
2021/09/17 09:22:02;;;;;;;34.17;21.48;;;;;;;22.31;57.11;101552.28;4966033;28;124023;-72
2021/09/17 09:24:32;;;;;;;32.58;20.95;;;;;;;22.39;57.15;101556.19;4972571;28;123952;-73
2021/09/17 09:27:13;;;;;;;31.80;20.52;;;;;;;22.45;56.85;101558.38;4972649;28;114120;-72
2021/09/17 09:29:46;;;;;;;31.20;20.83;;;;;;;22.51;56.73;101557.88;4971104;28;114320;-73
2021/09/17 09:32:32;;;;;;;31.98;21.05;;;;;;;22.57;56.67;101557.34;4971220;28;123802;-73
2021/09/17 09:35:03;;;;;;;33.33;21.10;;;;;;;22.65;56.89;101551.28;4972351;28;123535;-73
2021/09/17 09:37:34;;;;;;;31.40;20.65;;;;;;;22.78;56.68;101548.41;4970319;28;114059;-72
2021/09/17 09:40:04;;;;;;;31.83;20.15;;;;;;;22.93;56.59;101547.06;4977499;28;114705;-72
2021/09/17 09:42:38;;;;;;;29.77;20.42;;;;;;;23.05;56.36;101546.03;4962505;28;123905;-70
2021/09/17 09:45:09;;;;;;;32.13;20.75;;;;;;;23.18;56.27;101555.78;4970748;28;123241;-70
2021/09/17 09:47:39;;;;;;;34.08;21.02;;;;;;;23.29;56.03;101558.41;4958391;28;114458;-70
2021/09/17 09:50:08;;;;;;;31.50;20.35;;;;;;;23.36;55.98;101553.28;4970232;28;113958;-70
2021/09/17 09:52:36;;;;;;;31.85;21.23;;;;;;;23.43;56.29;101544.53;4970393;28;123232;-70
2021/09/17 09:55:05;;;;;;;28.30;18.73;;;;;;;23.52;55.66;101553.66;4967966;28;124879;-70
2021/09/17 09:57:35;;;;;;;29.58;18.65;;;;;;;23.61;55.30;101552.00;4966683;28;114077;-70
2021/09/17 10:00:09;;;;;;;30.08;20.33;;;;;;;23.64;55.09;101551.69;4972040;28;114188;-70
2021/09/17 10:02:41;;;;;;;30.20;19.65;;;;;;;23.67;55.07;101551.44;4981917;28;124049;-70
2021/09/17 10:05:13;;;;;;;29.58;20.08;;;;;;;23.70;54.87;101557.44;4968864;28;123933;-70
2021/09/17 10:07:40;;;;;;;31.90;19.80;;;;;;;23.76;55.12;101561.44;4971465;28;112950;-70
2021/09/17 10:10:10;;;;;;;29.70;20.10;;;;;;;23.82;55.21;101560.91;4969420;28;114030;-72
2021/09/17 10:12:38;;;;;;;33.00;21.50;;;;;;;23.89;55.12;101559.38;4963376;28;125056;-73
2021/09/17 10:15:10;;;;;;;29.20;20.40;;;;;;;23.95;54.79;101549.00;4971102;28;124208;-72
2021/09/17 10:17:39;;;;;;;31.73;20.73;;;;;;;23.98;54.70;101548.69;4970592;28;113687;-72
2021/09/17 10:20:08;;;;;;;32.38;21.70;;;;;;;24.02;54.29;101545.59;4956961;28;113433;-73
2021/09/17 10:22:37;;;;;;;30.88;21.27;;;;;;;24.04;54.07;101550.88;4969506;28;123792;-72
2021/09/17 10:25:10;;;;;;;33.10;22.40;;;;;;;24.05;54.27;101549.84;4965970;28;123825;-72
2021/09/17 10:27:40;;;;;;;30.83;21.67;;;;;;;24.09;54.25;101545.84;4956998;28;115215;-73
2021/09/17 10:30:10;;;;;;;35.17;22.10;;;;;;;24.12;54.14;101540.19;4957702;28;114646;-72
2021/09/17 10:32:43;;;;;;;31.35;21.65;;;;;;;24.15;54.09;101539.91;4960549;28;124111;-72
2021/09/17 10:35:13;;;;;;;34.97;22.92;;;;;;;24.19;53.92;101541.34;4955051;28;124243;-73
2021/09/17 10:38:15;;;;;;;34.53;22.70;;;;;;;24.22;54.04;101541.06;4965465;22;114479;-67
2021/09/17 10:40:46;;;;;;;34.75;22.55;;;;;;;24.29;54.15;101538.63;4952418;28;114561;-67
2021/09/17 10:43:16;;;;;;;35.00;23.00;;;;;;;24.36;54.05;101533.50;4951235;28;124122;-67
2021/09/17 10:45:52;;;;;;;33.63;22.08;;;;;;;24.44;53.82;101528.22;4952819;28;124607;-67
2021/09/17 10:48:43;;;;;;;33.45;22.17;;;;;;;24.49;53.84;101531.38;4951639;28;114593;-67
2021/09/17 10:51:34;;;;;;;31.10;20.40;;;;;;;24.55;53.43;101530.81;4943985;28;114569;-67
2021/09/17 10:54:14;;;;;;;31.38;19.88;;;;;;;24.63;53.74;101536.34;4950801;28;124101;-67
2021/09/17 10:56:47;;;;;;;29.27;19.23;;;;;;;24.73;53.26;101543.63;4952996;28;126329;-67
2021/09/17 10:59:29;;;;;;;29.42;19.70;;;;;;;24.83;53.22;101528.22;4951852;28;113476;-67
2021/09/17 11:02:03;;;;;;;28.05;19.52;;;;;;;24.92;52.50;101532.78;4944554;28;114143;-67
2021/09/17 11:04:38;;;;;;;31.67;19.83;;;;;;;25.01;52.52;101531.88;4950588;28;124062;-67
2021/09/17 11:07:16;;;;;;;28.20;18.70;;;;;;;25.09;52.33;101528.44;4952472;28;123730;-67
2021/09/17 11:09:45;;;;;;;23.35;14.70;;;;;;;25.15;51.85;101522.44;4936522;28;113287;-67